Terminal Aerodrome Forecast
Issued by NWS

Home | Current Version | Previous Version | Text Only | Print | Product List | Glossary On
Versions: 1 2 3 4 5 6 7 8 9 10 11 12 13
000
FTUS45 KREV 240500
TAFMMH
TAF
KMMH 240529Z 2406/2506 VRB04KT P6SM SKC
     FM241600 17011KT P6SM SKC
     FM241900 25015G27KT P6SM FEW180
     FM250200 29013G25KT P6SM FEW180
      AMD NOT SKED 2406/2414=

USA.gov is the U.S. government's official web portal to all federal, state and local government web resources and services.